sensor_id;sensor_type;location;lat;lon;timestamp;P1;durP1;ratioP1;P2;durP2;ratioP2
62933;SDS011;49038;47.600;19.242;2022-12-18T00:00:23;14.77;;;7.18;;
62933;SDS011;49038;47.600;19.242;2022-12-18T00:03:25;27.20;;;10.25;;
62933;SDS011;49038;47.600;19.242;2022-12-18T00:06:28;10.15;;;5.28;;
62933;SDS011;49038;47.600;19.242;2022-12-18T00:09:30;12.20;;;7.05;;
62933;SDS011;49038;47.600;19.242;2022-12-18T00:12:41;12.00;;;7.78;;
62933;SDS011;49038;47.600;19.242;2022-12-18T00:15:44;7.95;;;7.18;;
62933;SDS011;49038;47.600;19.242;2022-12-18T00:18:48;12.80;;;9.07;;
62933;SDS011;49038;47.600;19.242;2022-12-18T00:21:52;9.38;;;6.32;;
62933;SDS011;49038;47.600;19.242;2022-12-18T00:24:55;7.95;;;6.00;;
62933;SDS011;49038;47.600;19.242;2022-12-18T00:27:57;11.35;;;6.53;;
62933;SDS011;49038;47.600;19.242;2022-12-18T00:31:03;14.25;;;8.95;;
62933;SDS011;49038;47.600;19.242;2022-12-18T00:34:15;11.68;;;8.20;;
62933;SDS011;49038;47.600;19.242;2022-12-18T00:37:18;10.40;;;6.35;;
62933;SDS011;49038;47.600;19.242;2022-12-18T00:40:21;15.93;;;7.18;;
62933;SDS011;49038;47.600;19.242;2022-12-18T00:43:23;13.25;;;7.95;;
62933;SDS011;49038;47.600;19.242;2022-12-18T00:46:25;10.88;;;6.00;;
62933;SDS011;49038;47.600;19.242;2022-12-18T00:49:28;9.15;;;6.57;;
62933;SDS011;49038;47.600;19.242;2022-12-18T00:52:30;11.15;;;6.37;;
62933;SDS011;49038;47.600;19.242;2022-12-18T00:55:32;7.47;;;6.15;;
62933;SDS011;49038;47.600;19.242;2022-12-18T00:58:37;10.30;;;7.90;;
62933;SDS011;49038;47.600;19.242;2022-12-18T01:01:40;7.93;;;6.15;;
62933;SDS011;49038;47.600;19.242;2022-12-18T01:04:42;12.73;;;7.97;;
62933;SDS011;49038;47.600;19.242;2022-12-18T01:07:44;13.05;;;6.80;;
62933;SDS011;49038;47.600;19.242;2022-12-18T01:10:47;12.80;;;7.10;;
62933;SDS011;49038;47.600;19.242;2022-12-18T01:13:49;23.48;;;10.23;;
62933;SDS011;49038;47.600;19.242;2022-12-18T01:16:51;16.52;;;9.88;;
62933;SDS011;49038;47.600;19.242;2022-12-18T01:19:53;6.25;;;5.45;;
62933;SDS011;49038;47.600;19.242;2022-12-18T01:22:55;11.10;;;7.28;;
62933;SDS011;49038;47.600;19.242;2022-12-18T01:25:58;14.18;;;6.85;;
62933;SDS011;49038;47.600;19.242;2022-12-18T01:29:00;14.68;;;6.43;;
62933;SDS011;49038;47.600;19.242;2022-12-18T01:32:02;6.62;;;6.00;;
62933;SDS011;49038;47.600;19.242;2022-12-18T01:35:05;13.75;;;5.85;;
62933;SDS011;49038;47.600;19.242;2022-12-18T01:38:07;8.30;;;6.05;;
62933;SDS011;49038;47.600;19.242;2022-12-18T01:41:10;12.73;;;7.00;;
62933;SDS011;49038;47.600;19.242;2022-12-18T01:47:53;14.90;;;6.50;;
62933;SDS011;49038;47.600;19.242;2022-12-18T01:51:00;14.38;;;6.47;;
62933;SDS011;49038;47.600;19.242;2022-12-18T01:54:03;11.15;;;6.15;;
62933;SDS011;49038;47.600;19.242;2022-12-18T01:57:05;8.07;;;6.30;;
62933;SDS011;49038;47.600;19.242;2022-12-18T02:00:12;16.40;;;6.00;;
62933;SDS011;49038;47.600;19.242;2022-12-18T02:03:21;10.95;;;6.50;;
62933;SDS011;49038;47.600;19.242;2022-12-18T02:09:33;13.43;;;8.65;;
62933;SDS011;49038;47.600;19.242;2022-12-18T02:13:26;7.72;;;6.43;;
62933;SDS011;49038;47.600;19.242;2022-12-18T02:23:00;7.93;;;7.05;;
62933;SDS011;49038;47.600;19.242;2022-12-18T02:29:23;6.55;;;5.87;;
62933;SDS011;49038;47.600;19.242;2022-12-18T02:32:32;9.48;;;6.50;;
62933;SDS011;49038;47.600;19.242;2022-12-18T02:35:36;7.78;;;6.35;;
62933;SDS011;49038;47.600;19.242;2022-12-18T02:38:41;10.82;;;5.90;;
62933;SDS011;49038;47.600;19.242;2022-12-18T02:41:44;15.25;;;6.70;;
62933;SDS011;49038;47.600;19.242;2022-12-18T02:44:48;12.40;;;7.22;;
62933;SDS011;49038;47.600;19.242;2022-12-18T02:47:52;14.87;;;7.00;;
62933;SDS011;49038;47.600;19.242;2022-12-18T02:50:58;15.55;;;6.40;;
62933;SDS011;49038;47.600;19.242;2022-12-18T02:57:34;13.70;;;6.25;;
62933;SDS011;49038;47.600;19.242;2022-12-18T03:00:40;10.65;;;7.15;;
62933;SDS011;49038;47.600;19.242;2022-12-18T03:03:47;6.82;;;5.95;;
62933;SDS011;49038;47.600;19.242;2022-12-18T03:06:54;8.15;;;5.40;;
62933;SDS011;49038;47.600;19.242;2022-12-18T03:09:58;13.43;;;5.75;;
62933;SDS011;49038;47.600;19.242;2022-12-18T03:13:04;11.90;;;6.85;;
62933;SDS011;49038;47.600;19.242;2022-12-18T03:16:10;11.12;;;5.18;;
62933;SDS011;49038;47.600;19.242;2022-12-18T03:19:15;7.47;;;5.70;;
62933;SDS011;49038;47.600;19.242;2022-12-18T03:22:20;14.43;;;6.15;;
62933;SDS011;49038;47.600;19.242;2022-12-18T03:25:22;13.93;;;6.10;;
62933;SDS011;49038;47.600;19.242;2022-12-18T03:28:26;12.43;;;7.22;;
62933;SDS011;49038;47.600;19.242;2022-12-18T03:31:30;6.28;;;5.28;;
62933;SDS011;49038;47.600;19.242;2022-12-18T03:34:34;5.12;;;4.40;;
62933;SDS011;49038;47.600;19.242;2022-12-18T03:37:37;8.38;;;5.75;;
62933;SDS011;49038;47.600;19.242;2022-12-18T03:40:45;9.55;;;6.28;;
62933;SDS011;49038;47.600;19.242;2022-12-18T03:43:57;5.10;;;4.62;;
62933;SDS011;49038;47.600;19.242;2022-12-18T03:54:04;6.80;;;5.30;;
62933;SDS011;49038;47.600;19.242;2022-12-18T03:57:11;10.23;;;5.97;;
62933;SDS011;49038;47.600;19.242;2022-12-18T04:00:17;9.25;;;6.60;;
62933;SDS011;49038;47.600;19.242;2022-12-18T04:03:20;10.50;;;6.00;;
62933;SDS011;49038;47.600;19.242;2022-12-18T04:06:27;5.97;;;4.93;;
62933;SDS011;49038;47.600;19.242;2022-12-18T04:09:31;7.82;;;4.93;;
62933;SDS011;49038;47.600;19.242;2022-12-18T04:12:34;15.63;;;5.25;;
62933;SDS011;49038;47.600;19.242;2022-12-18T04:15:36;6.87;;;6.18;;
62933;SDS011;49038;47.600;19.242;2022-12-18T04:18:39;9.95;;;5.40;;
62933;SDS011;49038;47.600;19.242;2022-12-18T04:21:41;9.57;;;6.22;;
62933;SDS011;49038;47.600;19.242;2022-12-18T04:24:43;6.78;;;5.82;;
62933;SDS011;49038;47.600;19.242;2022-12-18T04:27:46;10.07;;;6.37;;
62933;SDS011;49038;47.600;19.242;2022-12-18T04:30:48;7.40;;;6.70;;
62933;SDS011;49038;47.600;19.242;2022-12-18T04:33:50;6.53;;;5.05;;
62933;SDS011;49038;47.600;19.242;2022-12-18T04:36:53;11.07;;;6.90;;
62933;SDS011;49038;47.600;19.242;2022-12-18T04:39:55;5.95;;;5.03;;
62933;SDS011;49038;47.600;19.242;2022-12-18T04:42:57;4.68;;;4.18;;
62933;SDS011;49038;47.600;19.242;2022-12-18T04:46:04;11.07;;;6.60;;
62933;SDS011;49038;47.600;19.242;2022-12-18T04:49:07;10.63;;;6.97;;
62933;SDS011;49038;47.600;19.242;2022-12-18T04:52:09;12.75;;;7.00;;
62933;SDS011;49038;47.600;19.242;2022-12-18T04:55:11;7.70;;;5.37;;
62933;SDS011;49038;47.600;19.242;2022-12-18T04:58:14;8.57;;;7.12;;
62933;SDS011;49038;47.600;19.242;2022-12-18T05:01:18;8.57;;;5.43;;
62933;SDS011;49038;47.600;19.242;2022-12-18T05:04:21;11.50;;;6.78;;
62933;SDS011;49038;47.600;19.242;2022-12-18T05:07:23;7.43;;;6.18;;
62933;SDS011;49038;47.600;19.242;2022-12-18T05:10:25;5.93;;;3.60;;
62933;SDS011;49038;47.600;19.242;2022-12-18T05:13:29;4.62;;;4.22;;
62933;SDS011;49038;47.600;19.242;2022-12-18T05:16:31;8.10;;;6.53;;
62933;SDS011;49038;47.600;19.242;2022-12-18T05:19:33;4.95;;;4.45;;
62933;SDS011;49038;47.600;19.242;2022-12-18T05:22:36;11.30;;;6.00;;
62933;SDS011;49038;47.600;19.242;2022-12-18T05:25:38;7.50;;;5.60;;
62933;SDS011;49038;47.600;19.242;2022-12-18T05:28:40;5.30;;;4.80;;
62933;SDS011;49038;47.600;19.242;2022-12-18T05:31:42;5.40;;;4.53;;
62933;SDS011;49038;47.600;19.242;2022-12-18T05:34:45;18.35;;;7.32;;
62933;SDS011;49038;47.600;19.242;2022-12-18T05:37:47;10.02;;;6.75;;
62933;SDS011;49038;47.600;19.242;2022-12-18T05:40:50;10.55;;;7.30;;
62933;SDS011;49038;47.600;19.242;2022-12-18T05:43:52;4.47;;;4.07;;
62933;SDS011;49038;47.600;19.242;2022-12-18T05:46:54;9.48;;;7.53;;
62933;SDS011;49038;47.600;19.242;2022-12-18T05:49:57;13.07;;;5.72;;
62933;SDS011;49038;47.600;19.242;2022-12-18T05:52:59;10.00;;;8.70;;
62933;SDS011;49038;47.600;19.242;2022-12-18T05:56:02;17.02;;;8.88;;
62933;SDS011;49038;47.600;19.242;2022-12-18T05:59:05;12.37;;;5.82;;
62933;SDS011;49038;47.600;19.242;2022-12-18T06:02:08;4.93;;;4.57;;
62933;SDS011;49038;47.600;19.242;2022-12-18T06:05:10;9.25;;;8.35;;
62933;SDS011;49038;47.600;19.242;2022-12-18T06:08:13;6.70;;;6.05;;
62933;SDS011;49038;47.600;19.242;2022-12-18T06:11:18;14.65;;;7.07;;
62933;SDS011;49038;47.600;19.242;2022-12-18T06:14:22;11.52;;;5.95;;
62933;SDS011;49038;47.600;19.242;2022-12-18T06:17:28;7.85;;;5.85;;
62933;SDS011;49038;47.600;19.242;2022-12-18T06:20:31;7.93;;;5.70;;
62933;SDS011;49038;47.600;19.242;2022-12-18T06:23:35;5.10;;;4.68;;
62933;SDS011;49038;47.600;19.242;2022-12-18T06:26:38;8.63;;;4.57;;
62933;SDS011;49038;47.600;19.242;2022-12-18T06:29:40;11.52;;;7.15;;
62933;SDS011;49038;47.600;19.242;2022-12-18T06:32:43;6.93;;;5.57;;
62933;SDS011;49038;47.600;19.242;2022-12-18T06:35:48;4.70;;;4.25;;
62933;SDS011;49038;47.600;19.242;2022-12-18T06:38:50;6.97;;;6.28;;
62933;SDS011;49038;47.600;19.242;2022-12-18T06:41:53;6.43;;;5.85;;
62933;SDS011;49038;47.600;19.242;2022-12-18T06:44:55;9.23;;;7.90;;
62933;SDS011;49038;47.600;19.242;2022-12-18T06:47:57;5.18;;;4.68;;
62933;SDS011;49038;47.600;19.242;2022-12-18T06:51:00;11.93;;;6.35;;
62933;SDS011;49038;47.600;19.242;2022-12-18T06:54:02;4.43;;;4.10;;
62933;SDS011;49038;47.600;19.242;2022-12-18T06:57:05;16.48;;;5.87;;
62933;SDS011;49038;47.600;19.242;2022-12-18T07:00:07;7.90;;;6.03;;
62933;SDS011;49038;47.600;19.242;2022-12-18T07:03:10;7.22;;;6.53;;
62933;SDS011;49038;47.600;19.242;2022-12-18T07:06:13;4.05;;;3.80;;
62933;SDS011;49038;47.600;19.242;2022-12-18T07:09:16;7.43;;;6.05;;
62933;SDS011;49038;47.600;19.242;2022-12-18T07:12:19;16.05;;;4.72;;
62933;SDS011;49038;47.600;19.242;2022-12-18T07:15:21;7.37;;;6.03;;
62933;SDS011;49038;47.600;19.242;2022-12-18T07:18:23;8.30;;;7.50;;
62933;SDS011;49038;47.600;19.242;2022-12-18T07:21:25;10.65;;;6.65;;
62933;SDS011;49038;47.600;19.242;2022-12-18T07:24:28;19.48;;;12.57;;
62933;SDS011;49038;47.600;19.242;2022-12-18T07:27:30;10.88;;;9.15;;
62933;SDS011;49038;47.600;19.242;2022-12-18T07:30:32;9.52;;;5.97;;
62933;SDS011;49038;47.600;19.242;2022-12-18T07:33:35;12.43;;;7.50;;
62933;SDS011;49038;47.600;19.242;2022-12-18T07:36:37;7.55;;;6.00;;
62933;SDS011;49038;47.600;19.242;2022-12-18T07:39:40;8.52;;;6.20;;
62933;SDS011;49038;47.600;19.242;2022-12-18T07:42:42;11.98;;;5.72;;
62933;SDS011;49038;47.600;19.242;2022-12-18T07:45:44;8.23;;;5.72;;
62933;SDS011;49038;47.600;19.242;2022-12-18T07:48:47;4.87;;;4.47;;
62933;SDS011;49038;47.600;19.242;2022-12-18T07:51:51;7.62;;;6.82;;
62933;SDS011;49038;47.600;19.242;2022-12-18T07:54:53;8.57;;;6.03;;
62933;SDS011;49038;47.600;19.242;2022-12-18T07:57:55;7.90;;;5.45;;
62933;SDS011;49038;47.600;19.242;2022-12-18T08:01:11;10.65;;;7.37;;
62933;SDS011;49038;47.600;19.242;2022-12-18T08:04:14;7.10;;;5.45;;
62933;SDS011;49038;47.600;19.242;2022-12-18T08:07:16;6.18;;;5.65;;
62933;SDS011;49038;47.600;19.242;2022-12-18T08:10:19;7.20;;;6.53;;
62933;SDS011;49038;47.600;19.242;2022-12-18T08:13:21;8.20;;;6.18;;
62933;SDS011;49038;47.600;19.242;2022-12-18T08:16:24;13.00;;;6.22;;
62933;SDS011;49038;47.600;19.242;2022-12-18T08:19:26;9.20;;;5.43;;
62933;SDS011;49038;47.600;19.242;2022-12-18T08:22:28;8.00;;;5.95;;
62933;SDS011;49038;47.600;19.242;2022-12-18T08:25:31;7.20;;;4.78;;
62933;SDS011;49038;47.600;19.242;2022-12-18T08:28:33;7.70;;;6.68;;
62933;SDS011;49038;47.600;19.242;2022-12-18T08:31:36;6.47;;;5.57;;
62933;SDS011;49038;47.600;19.242;2022-12-18T08:34:38;9.77;;;7.82;;
62933;SDS011;49038;47.600;19.242;2022-12-18T08:37:40;7.55;;;5.93;;
62933;SDS011;49038;47.600;19.242;2022-12-18T08:40:43;11.90;;;6.62;;
62933;SDS011;49038;47.600;19.242;2022-12-18T08:43:45;9.73;;;7.47;;
62933;SDS011;49038;47.600;19.242;2022-12-18T08:47:07;9.88;;;5.22;;
62933;SDS011;49038;47.600;19.242;2022-12-18T08:50:09;14.82;;;8.63;;
62933;SDS011;49038;47.600;19.242;2022-12-18T08:53:13;9.93;;;7.60;;
62933;SDS011;49038;47.600;19.242;2022-12-18T08:56:16;16.08;;;9.77;;
62933;SDS011;49038;47.600;19.242;2022-12-18T08:59:18;8.63;;;6.87;;
62933;SDS011;49038;47.600;19.242;2022-12-18T09:02:21;7.70;;;6.57;;
62933;SDS011;49038;47.600;19.242;2022-12-18T09:05:25;8.65;;;6.65;;
62933;SDS011;49038;47.600;19.242;2022-12-18T09:08:27;11.77;;;8.07;;
62933;SDS011;49038;47.600;19.242;2022-12-18T09:11:30;12.50;;;7.40;;
62933;SDS011;49038;47.600;19.242;2022-12-18T09:14:33;19.98;;;6.87;;
62933;SDS011;49038;47.600;19.242;2022-12-18T09:17:35;16.92;;;8.75;;
62933;SDS011;49038;47.600;19.242;2022-12-18T09:20:37;15.85;;;8.85;;
62933;SDS011;49038;47.600;19.242;2022-12-18T09:23:40;12.98;;;8.52;;
62933;SDS011;49038;47.600;19.242;2022-12-18T09:26:42;15.80;;;8.15;;
62933;SDS011;49038;47.600;19.242;2022-12-18T09:29:48;7.45;;;5.68;;
62933;SDS011;49038;47.600;19.242;2022-12-18T09:32:50;14.10;;;6.30;;
62933;SDS011;49038;47.600;19.242;2022-12-18T09:35:52;8.60;;;6.37;;
62933;SDS011;49038;47.600;19.242;2022-12-18T09:38:54;8.75;;;5.97;;
62933;SDS011;49038;47.600;19.242;2022-12-18T09:41:57;7.50;;;5.32;;
62933;SDS011;49038;47.600;19.242;2022-12-18T09:45:00;8.43;;;6.30;;
62933;SDS011;49038;47.600;19.242;2022-12-18T09:48:03;8.45;;;5.10;;
62933;SDS011;49038;47.600;19.242;2022-12-18T09:51:42;11.27;;;6.70;;
62933;SDS011;49038;47.600;19.242;2022-12-18T09:54:43;8.32;;;6.03;;
62933;SDS011;49038;47.600;19.242;2022-12-18T09:57:48;15.00;;;6.07;;
62933;SDS011;49038;47.600;19.242;2022-12-18T10:00:55;7.07;;;4.80;;
62933;SDS011;49038;47.600;19.242;2022-12-18T10:03:57;9.52;;;6.70;;
62933;SDS011;49038;47.600;19.242;2022-12-18T10:07:02;7.72;;;5.93;;
62933;SDS011;49038;47.600;19.242;2022-12-18T10:10:14;7.68;;;6.07;;
62933;SDS011;49038;47.600;19.242;2022-12-18T10:13:33;15.85;;;6.18;;
62933;SDS011;49038;47.600;19.242;2022-12-18T10:16:52;6.68;;;4.82;;
62933;SDS011;49038;47.600;19.242;2022-12-18T10:19:59;8.80;;;5.55;;
62933;SDS011;49038;47.600;19.242;2022-12-18T10:23:15;14.10;;;6.82;;
62933;SDS011;49038;47.600;19.242;2022-12-18T10:26:23;16.23;;;7.80;;
62933;SDS011;49038;47.600;19.242;2022-12-18T10:29:30;11.43;;;6.93;;
62933;SDS011;49038;47.600;19.242;2022-12-18T10:32:32;8.25;;;5.93;;
62933;SDS011;49038;47.600;19.242;2022-12-18T10:35:34;10.43;;;6.53;;
62933;SDS011;49038;47.600;19.242;2022-12-18T10:38:37;8.70;;;6.15;;
62933;SDS011;49038;47.600;19.242;2022-12-18T10:41:40;8.40;;;5.82;;
62933;SDS011;49038;47.600;19.242;2022-12-18T10:44:42;12.10;;;6.15;;
62933;SDS011;49038;47.600;19.242;2022-12-18T10:47:45;9.30;;;5.72;;
62933;SDS011;49038;47.600;19.242;2022-12-18T10:50:50;10.18;;;7.18;;
62933;SDS011;49038;47.600;19.242;2022-12-18T10:54:15;9.70;;;6.18;;
62933;SDS011;49038;47.600;19.242;2022-12-18T11:00:40;13.43;;;6.32;;
62933;SDS011;49038;47.600;19.242;2022-12-18T11:03:44;13.75;;;6.87;;
62933;SDS011;49038;47.600;19.242;2022-12-18T11:07:06;7.97;;;5.05;;
62933;SDS011;49038;47.600;19.242;2022-12-18T11:10:14;9.73;;;6.22;;
62933;SDS011;49038;47.600;19.242;2022-12-18T11:13:19;23.30;;;10.90;;
62933;SDS011;49038;47.600;19.242;2022-12-18T11:16:23;21.20;;;8.07;;
62933;SDS011;49038;47.600;19.242;2022-12-18T11:22:37;11.60;;;7.37;;
62933;SDS011;49038;47.600;19.242;2022-12-18T11:25:40;12.93;;;3.87;;
62933;SDS011;49038;47.600;19.242;2022-12-18T11:29:07;16.00;;;6.32;;
62933;SDS011;49038;47.600;19.242;2022-12-18T11:32:30;8.70;;;5.80;;
62933;SDS011;49038;47.600;19.242;2022-12-18T11:38:54;13.27;;;5.72;;
62933;SDS011;49038;47.600;19.242;2022-12-18T11:42:11;10.95;;;7.45;;
62933;SDS011;49038;47.600;19.242;2022-12-18T11:45:34;7.53;;;4.70;;
62933;SDS011;49038;47.600;19.242;2022-12-18T11:49:12;17.15;;;8.32;;
62933;SDS011;49038;47.600;19.242;2022-12-18T12:02:03;13.95;;;6.93;;
62933;SDS011;49038;47.600;19.242;2022-12-18T12:25:59;9.30;;;6.65;;
62933;SDS011;49038;47.600;19.242;2022-12-18T12:29:06;19.08;;;8.57;;
62933;SDS011;49038;47.600;19.242;2022-12-18T12:39:40;14.55;;;8.18;;
62933;SDS011;49038;47.600;19.242;2022-12-18T12:42:44;13.93;;;7.10;;
62933;SDS011;49038;47.600;19.242;2022-12-18T12:46:10;20.30;;;11.88;;
62933;SDS011;49038;47.600;19.242;2022-12-18T12:49:17;11.85;;;7.40;;
62933;SDS011;49038;47.600;19.242;2022-12-18T12:52:25;8.75;;;6.25;;
62933;SDS011;49038;47.600;19.242;2022-12-18T12:55:31;17.37;;;10.00;;
62933;SDS011;49038;47.600;19.242;2022-12-18T13:05:40;14.95;;;8.45;;
62933;SDS011;49038;47.600;19.242;2022-12-18T13:08:56;14.90;;;7.78;;
62933;SDS011;49038;47.600;19.242;2022-12-18T13:12:02;8.98;;;6.57;;
62933;SDS011;49038;47.600;19.242;2022-12-18T13:18:40;15.82;;;7.78;;
62933;SDS011;49038;47.600;19.242;2022-12-18T13:21:54;11.00;;;6.30;;
62933;SDS011;49038;47.600;19.242;2022-12-18T13:24:57;5.93;;;4.45;;
62933;SDS011;49038;47.600;19.242;2022-12-18T13:31:14;9.43;;;6.87;;
62933;SDS011;49038;47.600;19.242;2022-12-18T13:34:32;20.80;;;10.07;;
62933;SDS011;49038;47.600;19.242;2022-12-18T13:43:50;12.32;;;5.95;;
62933;SDS011;49038;47.600;19.242;2022-12-18T13:46:53;7.40;;;5.57;;
62933;SDS011;49038;47.600;19.242;2022-12-18T13:49:56;16.17;;;8.35;;
62933;SDS011;49038;47.600;19.242;2022-12-18T13:52:59;12.68;;;7.95;;
62933;SDS011;49038;47.600;19.242;2022-12-18T13:56:02;15.70;;;7.20;;
62933;SDS011;49038;47.600;19.242;2022-12-18T13:59:15;12.05;;;7.25;;
62933;SDS011;49038;47.600;19.242;2022-12-18T14:02:26;12.37;;;6.90;;
62933;SDS011;49038;47.600;19.242;2022-12-18T14:05:31;7.57;;;4.97;;
62933;SDS011;49038;47.600;19.242;2022-12-18T14:08:37;20.37;;;7.60;;
62933;SDS011;49038;47.600;19.242;2022-12-18T14:11:45;8.38;;;5.28;;
62933;SDS011;49038;47.600;19.242;2022-12-18T14:14:50;10.35;;;5.95;;
62933;SDS011;49038;47.600;19.242;2022-12-18T14:18:18;10.15;;;5.57;;
62933;SDS011;49038;47.600;19.242;2022-12-18T14:21:28;25.67;;;11.27;;
62933;SDS011;49038;47.600;19.242;2022-12-18T14:24:31;44.47;;;19.45;;
62933;SDS011;49038;47.600;19.242;2022-12-18T14:27:36;39.58;;;19.75;;
62933;SDS011;49038;47.600;19.242;2022-12-18T14:30:42;44.03;;;22.23;;
62933;SDS011;49038;47.600;19.242;2022-12-18T14:33:46;37.33;;;18.27;;
62933;SDS011;49038;47.600;19.242;2022-12-18T14:36:52;38.95;;;20.70;;
62933;SDS011;49038;47.600;19.242;2022-12-18T14:39:59;60.60;;;29.42;;
62933;SDS011;49038;47.600;19.242;2022-12-18T14:43:12;53.08;;;25.15;;
62933;SDS011;49038;47.600;19.242;2022-12-18T14:49:33;53.42;;;31.37;;
62933;SDS011;49038;47.600;19.242;2022-12-18T14:52:36;119.82;;;48.25;;
62933;SDS011;49038;47.600;19.242;2022-12-18T14:55:43;115.57;;;46.67;;
62933;SDS011;49038;47.600;19.242;2022-12-18T15:05:20;35.17;;;20.65;;
62933;SDS011;49038;47.600;19.242;2022-12-18T15:08:34;23.35;;;12.43;;
62933;SDS011;49038;47.600;19.242;2022-12-18T15:14:40;12.57;;;6.78;;
62933;SDS011;49038;47.600;19.242;2022-12-18T15:17:43;7.68;;;6.53;;
62933;SDS011;49038;47.600;19.242;2022-12-18T15:20:51;7.50;;;5.65;;
62933;SDS011;49038;47.600;19.242;2022-12-18T15:23:54;31.12;;;13.60;;
62933;SDS011;49038;47.600;19.242;2022-12-18T15:26:57;16.77;;;8.88;;
62933;SDS011;49038;47.600;19.242;2022-12-18T15:33:24;25.25;;;11.82;;
62933;SDS011;49038;47.600;19.242;2022-12-18T15:36:29;25.58;;;15.32;;
62933;SDS011;49038;47.600;19.242;2022-12-18T15:39:32;21.92;;;12.82;;
62933;SDS011;49038;47.600;19.242;2022-12-18T15:42:34;17.70;;;11.73;;
62933;SDS011;49038;47.600;19.242;2022-12-18T15:45:55;20.62;;;11.70;;
62933;SDS011;49038;47.600;19.242;2022-12-18T15:48:58;20.23;;;11.50;;
62933;SDS011;49038;47.600;19.242;2022-12-18T15:52:04;11.77;;;8.35;;
62933;SDS011;49038;47.600;19.242;2022-12-18T15:55:15;47.97;;;21.65;;
62933;SDS011;49038;47.600;19.242;2022-12-18T15:58:41;75.78;;;34.75;;
62933;SDS011;49038;47.600;19.242;2022-12-18T16:01:44;50.53;;;25.70;;
62933;SDS011;49038;47.600;19.242;2022-12-18T16:04:49;38.70;;;20.27;;
62933;SDS011;49038;47.600;19.242;2022-12-18T16:07:52;45.47;;;23.48;;
62933;SDS011;49038;47.600;19.242;2022-12-18T16:10:55;35.97;;;21.60;;
62933;SDS011;49038;47.600;19.242;2022-12-18T16:13:59;46.05;;;24.15;;
62933;SDS011;49038;47.600;19.242;2022-12-18T16:17:02;26.33;;;16.23;;
62933;SDS011;49038;47.600;19.242;2022-12-18T16:20:16;25.23;;;15.30;;
62933;SDS011;49038;47.600;19.242;2022-12-18T16:23:23;32.53;;;16.83;;
62933;SDS011;49038;47.600;19.242;2022-12-18T16:26:26;25.02;;;15.85;;
62933;SDS011;49038;47.600;19.242;2022-12-18T16:29:29;30.75;;;14.32;;
62933;SDS011;49038;47.600;19.242;2022-12-18T16:32:32;23.35;;;13.00;;
62933;SDS011;49038;47.600;19.242;2022-12-18T16:35:34;28.67;;;16.87;;
62933;SDS011;49038;47.600;19.242;2022-12-18T16:38:39;19.80;;;15.50;;
62933;SDS011;49038;47.600;19.242;2022-12-18T16:41:42;25.67;;;19.00;;
62933;SDS011;49038;47.600;19.242;2022-12-18T16:44:45;17.77;;;14.25;;
62933;SDS011;49038;47.600;19.242;2022-12-18T16:47:48;28.30;;;12.60;;
62933;SDS011;49038;47.600;19.242;2022-12-18T16:50:53;34.47;;;20.55;;
62933;SDS011;49038;47.600;19.242;2022-12-18T16:54:04;26.25;;;17.00;;
62933;SDS011;49038;47.600;19.242;2022-12-18T16:57:13;26.30;;;16.23;;
62933;SDS011;49038;47.600;19.242;2022-12-18T17:00:17;40.03;;;17.40;;
62933;SDS011;49038;47.600;19.242;2022-12-18T17:03:20;31.35;;;17.33;;
62933;SDS011;49038;47.600;19.242;2022-12-18T17:06:23;23.58;;;16.30;;
62933;SDS011;49038;47.600;19.242;2022-12-18T17:09:26;37.70;;;22.33;;
62933;SDS011;49038;47.600;19.242;2022-12-18T17:12:28;53.90;;;26.27;;
62933;SDS011;49038;47.600;19.242;2022-12-18T17:15:33;24.98;;;17.52;;
62933;SDS011;49038;47.600;19.242;2022-12-18T17:18:37;30.05;;;14.70;;
62933;SDS011;49038;47.600;19.242;2022-12-18T17:21:39;22.83;;;12.18;;
62933;SDS011;49038;47.600;19.242;2022-12-18T17:24:42;37.22;;;20.25;;
62933;SDS011;49038;47.600;19.242;2022-12-18T17:27:44;31.90;;;23.50;;
62933;SDS011;49038;47.600;19.242;2022-12-18T17:30:47;35.45;;;24.60;;
62933;SDS011;49038;47.600;19.242;2022-12-18T17:33:49;41.92;;;23.77;;
62933;SDS011;49038;47.600;19.242;2022-12-18T17:36:52;45.58;;;25.20;;
62933;SDS011;49038;47.600;19.242;2022-12-18T17:39:54;42.65;;;20.45;;
62933;SDS011;49038;47.600;19.242;2022-12-18T17:42:56;40.12;;;22.00;;
62933;SDS011;49038;47.600;19.242;2022-12-18T17:46:02;36.88;;;22.23;;
62933;SDS011;49038;47.600;19.242;2022-12-18T17:49:08;34.55;;;21.15;;
62933;SDS011;49038;47.600;19.242;2022-12-18T17:52:11;34.22;;;18.42;;
62933;SDS011;49038;47.600;19.242;2022-12-18T17:55:14;30.95;;;21.48;;
62933;SDS011;49038;47.600;19.242;2022-12-18T17:58:17;41.58;;;22.90;;
62933;SDS011;49038;47.600;19.242;2022-12-18T18:01:21;48.50;;;25.90;;
62933;SDS011;49038;47.600;19.242;2022-12-18T18:04:25;51.67;;;26.33;;
62933;SDS011;49038;47.600;19.242;2022-12-18T18:07:28;36.65;;;21.77;;
62933;SDS011;49038;47.600;19.242;2022-12-18T18:10:30;42.70;;;25.48;;
62933;SDS011;49038;47.600;19.242;2022-12-18T18:13:36;37.25;;;23.05;;
62933;SDS011;49038;47.600;19.242;2022-12-18T18:17:08;27.00;;;17.77;;
62933;SDS011;49038;47.600;19.242;2022-12-18T18:20:10;33.25;;;15.95;;
62933;SDS011;49038;47.600;19.242;2022-12-18T18:23:13;25.25;;;17.33;;
62933;SDS011;49038;47.600;19.242;2022-12-18T18:26:16;27.02;;;17.70;;
62933;SDS011;49038;47.600;19.242;2022-12-18T18:29:20;147.07;;;61.40;;
62933;SDS011;49038;47.600;19.242;2022-12-18T18:32:26;119.25;;;47.92;;
62933;SDS011;49038;47.600;19.242;2022-12-18T18:35:29;121.20;;;62.58;;
62933;SDS011;49038;47.600;19.242;2022-12-18T18:38:53;70.62;;;33.85;;
62933;SDS011;49038;47.600;19.242;2022-12-18T18:41:55;45.05;;;28.25;;
62933;SDS011;49038;47.600;19.242;2022-12-18T18:44:58;53.33;;;25.02;;
62933;SDS011;49038;47.600;19.242;2022-12-18T18:48:04;58.63;;;32.17;;
62933;SDS011;49038;47.600;19.242;2022-12-18T18:51:11;40.58;;;27.40;;
62933;SDS011;49038;47.600;19.242;2022-12-18T18:54:23;50.78;;;26.75;;
62933;SDS011;49038;47.600;19.242;2022-12-18T18:57:28;40.00;;;25.40;;
62933;SDS011;49038;47.600;19.242;2022-12-18T19:00:32;36.17;;;21.87;;
62933;SDS011;49038;47.600;19.242;2022-12-18T19:03:36;50.42;;;23.52;;
62933;SDS011;49038;47.600;19.242;2022-12-18T19:06:40;29.55;;;20.88;;
62933;SDS011;49038;47.600;19.242;2022-12-18T19:09:44;59.30;;;27.20;;
62933;SDS011;49038;47.600;19.242;2022-12-18T19:12:53;38.63;;;26.17;;
62933;SDS011;49038;47.600;19.242;2022-12-18T19:16:14;38.17;;;21.70;;
62933;SDS011;49038;47.600;19.242;2022-12-18T19:19:17;41.50;;;24.00;;
62933;SDS011;49038;47.600;19.242;2022-12-18T19:22:22;27.70;;;22.02;;
62933;SDS011;49038;47.600;19.242;2022-12-18T19:25:25;17.45;;;13.77;;
62933;SDS011;49038;47.600;19.242;2022-12-18T19:28:43;33.63;;;19.87;;
62933;SDS011;49038;47.600;19.242;2022-12-18T19:31:46;36.65;;;21.87;;
62933;SDS011;49038;47.600;19.242;2022-12-18T19:34:48;27.73;;;21.65;;
62933;SDS011;49038;47.600;19.242;2022-12-18T19:37:51;33.83;;;21.73;;
62933;SDS011;49038;47.600;19.242;2022-12-18T19:40:54;65.85;;;34.17;;
62933;SDS011;49038;47.600;19.242;2022-12-18T19:43:57;150.27;;;77.70;;
62933;SDS011;49038;47.600;19.242;2022-12-18T19:46:59;121.37;;;55.15;;
62933;SDS011;49038;47.600;19.242;2022-12-18T19:50:02;55.97;;;34.45;;
62933;SDS011;49038;47.600;19.242;2022-12-18T19:53:05;55.12;;;25.70;;